createdAt,value
2022-10-11T00:01:04.434Z,65.79
2022-10-11T00:03:37.119Z,65.20
2022-10-11T00:06:06.849Z,66.68
2022-10-11T00:08:35.908Z,65.79
2022-10-11T00:11:08.316Z,65.93
2022-10-11T00:13:36.647Z,65.66
2022-10-11T00:16:11.558Z,65.59
2022-10-11T00:18:40.183Z,64.92
2022-10-11T00:21:13.208Z,64.93
2022-10-11T00:23:42.701Z,64.01
2022-10-11T00:26:11.459Z,64.90
2022-10-11T00:28:40.562Z,64.83
2022-10-11T00:31:13.502Z,65.05
2022-10-11T00:33:45.920Z,65.52
2022-10-11T00:36:17.045Z,65.52
2022-10-11T00:38:46.296Z,64.75
2022-10-11T00:41:15.328Z,64.56
2022-10-11T00:43:44.538Z,64.58
2022-10-11T00:46:18.857Z,64.81
2022-10-11T00:48:54.188Z,65.02
2022-10-11T00:51:51.405Z,65.10
2022-10-11T00:54:27.315Z,65.23
2022-10-11T00:57:04.400Z,65.11
2022-10-11T00:59:40.645Z,65.13
2022-10-11T01:02:10.355Z,65.79
2022-10-11T01:04:40.373Z,65.65
2022-10-11T01:07:10.366Z,66.07
2022-10-11T01:09:39.133Z,65.83
2022-10-11T01:12:20.082Z,65.95
2022-10-11T01:15:18.837Z,65.82
2022-10-11T01:17:54.709Z,66.12
2022-10-11T01:20:30.853Z,65.95
2022-10-11T01:23:35.397Z,66.07
2022-10-11T01:26:19.946Z,66.49
2022-10-11T01:28:57.329Z,66.30
2022-10-11T01:31:36.986Z,66.46
2022-10-11T01:34:47.247Z,66.37
2022-10-11T01:37:36.293Z,66.62
2022-10-11T01:40:44.727Z,67.11
2022-10-11T01:43:17.309Z,67.45
2022-10-11T01:45:51.045Z,67.27
2022-10-11T01:48:19.475Z,67.66
2022-10-11T01:50:53.482Z,67.89
2022-10-11T01:53:52.867Z,67.78
2022-10-11T01:56:42.274Z,67.96
2022-10-11T01:59:28.878Z,68.59
2022-10-11T02:02:23.964Z,68.57
2022-10-11T02:05:19.277Z,68.51
2022-10-11T02:07:59.635Z,68.30
2022-10-11T02:10:43.046Z,68.51
2022-10-11T02:13:26.196Z,68.41
2022-10-11T02:15:58.669Z,68.28
2022-10-11T02:18:33.471Z,67.97
2022-10-11T02:21:06.277Z,67.98
2022-10-11T02:23:42.950Z,68.02
2022-10-11T02:26:13.292Z,67.79
2022-10-11T02:28:45.073Z,67.98
2022-10-11T02:31:16.585Z,67.97
2022-10-11T02:34:07.916Z,68.32
2022-10-11T02:37:09.679Z,68.59
2022-10-11T02:39:54.110Z,68.78
2022-10-11T02:42:33.037Z,69.06
2022-10-11T02:45:14.197Z,69.35
2022-10-11T02:47:43.720Z,69.97
2022-10-11T02:50:12.712Z,70.36
2022-10-11T02:52:41.220Z,70.73
2022-10-11T02:55:10.944Z,71.15
2022-10-11T02:57:39.204Z,71.30
2022-10-11T03:00:09.213Z,71.50
2022-10-11T03:02:37.698Z,71.50
2022-10-11T03:05:06.472Z,71.72
2022-10-11T03:07:34.845Z,71.93
2022-10-11T03:10:04.231Z,72.14
2022-10-11T03:12:32.907Z,71.82
2022-10-11T03:15:01.518Z,71.65
2022-10-11T03:17:37.564Z,71.31
2022-10-11T03:20:07.517Z,71.01
2022-10-11T03:22:35.842Z,70.88
2022-10-11T03:25:05.240Z,71.01
2022-10-11T03:27:34.149Z,71.05
2022-10-11T03:30:02.945Z,71.24
2022-10-11T03:32:31.330Z,71.25
2022-10-11T03:34:59.723Z,71.06
2022-10-11T03:37:28.185Z,71.10
2022-10-11T03:39:56.685Z,71.18
2022-10-11T03:42:25.067Z,71.56
2022-10-11T03:44:53.524Z,71.19
2022-10-11T03:47:21.812Z,70.63
2022-10-11T03:49:50.198Z,70.29
2022-10-11T03:52:19.293Z,70.18
2022-10-11T03:54:47.575Z,70.14
2022-10-11T03:57:16.050Z,70.04
2022-10-11T03:59:44.304Z,69.98
2022-10-11T04:02:12.578Z,69.52
2022-10-11T04:04:40.982Z,69.63
2022-10-11T04:07:09.469Z,69.50
2022-10-11T04:09:38.201Z,69.30
2022-10-11T04:12:06.628Z,69.31
2022-10-11T04:14:34.917Z,69.02
2022-10-11T04:17:03.278Z,69.08
2022-10-11T04:19:31.529Z,68.80
2022-10-11T04:21:59.910Z,68.92
2022-10-11T04:24:28.256Z,68.77
2022-10-11T04:26:56.796Z,68.73
2022-10-11T04:29:28.868Z,68.34
2022-10-11T04:32:00.593Z,68.36
2022-10-11T04:34:28.973Z,67.90
2022-10-11T04:36:57.421Z,67.83
2022-10-11T04:39:25.726Z,67.87
2022-10-11T04:41:54.006Z,67.70
2022-10-11T04:44:22.291Z,67.69
2022-10-11T04:46:50.599Z,67.77
2022-10-11T04:49:18.961Z,67.62
2022-10-11T04:51:47.246Z,67.88
2022-10-11T04:54:15.967Z,67.63
2022-10-11T04:56:44.498Z,67.72
2022-10-11T04:59:12.769Z,67.78
2022-10-11T05:01:43.344Z,67.92
2022-10-11T05:04:11.885Z,67.80
2022-10-11T05:06:40.209Z,67.81
2022-10-11T05:09:08.623Z,67.88
2022-10-11T05:11:37.013Z,68.05
2022-10-11T05:14:05.490Z,68.02
2022-10-11T05:16:33.929Z,67.98
2022-10-11T05:19:02.501Z,68.10
2022-10-11T05:21:33.227Z,68.05
2022-10-11T05:24:01.574Z,68.07
2022-10-11T05:26:29.944Z,67.68
2022-10-11T05:28:58.228Z,67.68
2022-10-11T05:31:26.774Z,67.57
2022-10-11T05:33:55.322Z,67.16
2022-10-11T05:36:23.899Z,67.21
2022-10-11T05:38:52.996Z,67.23
2022-10-11T05:41:21.749Z,67.30
2022-10-11T05:43:50.157Z,67.56
2022-10-11T05:46:18.569Z,67.35
2022-10-11T05:48:55.209Z,67.45
2022-10-11T05:51:24.382Z,67.42
2022-10-11T05:53:52.978Z,67.22
2022-10-11T05:56:24.691Z,67.16
2022-10-11T05:58:57.506Z,67.57
2022-10-11T06:01:28.779Z,67.28
2022-10-11T06:03:57.451Z,66.87
2022-10-11T06:06:26.190Z,66.69
2022-10-11T06:08:56.198Z,66.31
2022-10-11T06:11:27.503Z,64.81
2022-10-11T06:14:00.647Z,64.08
2022-10-11T06:16:29.125Z,64.25
2022-10-11T06:18:58.111Z,63.25
2022-10-11T06:21:26.758Z,63.73
2022-10-11T06:24:00.790Z,63.41
2022-10-11T06:26:30.456Z,64.21
2022-10-11T06:28:59.123Z,64.55
2022-10-11T06:31:27.699Z,65.00
2022-10-11T06:33:56.249Z,65.54
2022-10-11T06:36:25.289Z,65.91
2022-10-11T06:38:55.438Z,65.59
2022-10-11T06:41:27.262Z,65.11
2022-10-11T06:43:57.129Z,64.86
2022-10-11T06:46:28.016Z,64.36
2022-10-11T06:48:56.746Z,63.92
2022-10-11T06:51:25.993Z,63.33
2022-10-11T06:53:57.963Z,62.45
2022-10-11T06:56:28.919Z,61.08
2022-10-11T06:58:59.812Z,61.68
2022-10-11T07:01:28.410Z,61.54
2022-10-11T07:03:58.481Z,62.14
2022-10-11T07:06:29.463Z,62.65
2022-10-11T07:09:00.989Z,62.45
2022-10-11T07:11:29.621Z,62.77
2022-10-11T07:14:14.665Z,62.74
2022-10-11T07:16:43.189Z,62.44
2022-10-11T07:19:11.757Z,62.49
2022-10-11T07:21:40.181Z,62.24
2022-10-11T07:24:08.920Z,62.30
2022-10-11T07:26:38.707Z,62.46
2022-10-11T07:29:09.325Z,62.21
2022-10-11T07:31:40.293Z,61.87
2022-10-11T07:34:09.606Z,61.61
2022-10-11T07:36:39.099Z,62.03
2022-10-11T07:39:09.141Z,61.56
2022-10-11T07:41:44.580Z,62.02
2022-10-11T07:44:15.158Z,62.06
2022-10-11T07:46:43.493Z,61.67
2022-10-11T07:49:11.884Z,61.39
2022-10-11T07:51:45.289Z,61.41
2022-10-11T07:54:14.752Z,60.95
2022-10-11T07:56:43.121Z,60.86
2022-10-11T07:59:13.618Z,60.53
2022-10-11T08:01:42.095Z,60.29
2022-10-11T08:04:15.637Z,60.37
2022-10-11T08:06:44.462Z,60.29
2022-10-11T08:09:16.555Z,60.22
2022-10-11T08:11:44.939Z,60.36
2022-10-11T08:14:13.652Z,59.83
2022-10-11T08:16:42.034Z,59.90
2022-10-11T08:19:11.250Z,59.74
2022-10-11T08:21:39.765Z,59.33
2022-10-11T08:24:08.617Z,58.89
2022-10-11T08:26:37.134Z,59.04
2022-10-11T08:29:06.061Z,58.56
2022-10-11T08:31:35.738Z,57.53
2022-10-11T08:34:04.166Z,57.21
2022-10-11T08:36:33.259Z,56.80
2022-10-11T08:39:01.885Z,56.52
2022-10-11T08:41:42.371Z,55.27
2022-10-11T08:44:52.147Z,56.04
2022-10-11T08:47:48.214Z,55.30
2022-10-11T08:50:23.468Z,53.84
2022-10-11T08:52:59.726Z,53.63
2022-10-11T08:55:51.098Z,54.25
2022-10-11T08:58:24.489Z,52.91
2022-10-11T09:00:56.744Z,52.76
2022-10-11T09:03:39.306Z,53.16
2022-10-11T09:06:53.157Z,52.75
2022-10-11T09:09:44.707Z,53.07
2022-10-11T09:12:31.937Z,52.41
2022-10-11T09:15:24.701Z,52.58
2022-10-11T09:18:41.162Z,51.47
2022-10-11T09:21:47.817Z,52.07
2022-10-11T09:24:18.957Z,51.23
2022-10-11T09:27:14.398Z,50.70
2022-10-11T09:30:04.553Z,50.68
2022-10-11T09:32:39.801Z,51.82
2022-10-11T09:35:18.524Z,51.52
2022-10-11T09:38:01.013Z,51.67
2022-10-11T09:40:48.210Z,52.25
2022-10-11T09:43:16.756Z,51.58
2022-10-11T09:45:49.520Z,50.49
2022-10-11T09:48:27.689Z,51.33
2022-10-11T09:51:06.588Z,51.00
2022-10-11T09:54:01.302Z,51.61
2022-10-11T09:56:33.065Z,50.65
2022-10-11T09:59:36.384Z,50.58
2022-10-11T10:02:14.004Z,51.07
2022-10-11T10:05:06.691Z,51.04
2022-10-11T10:07:38.269Z,51.29
2022-10-11T10:10:36.348Z,50.85
2022-10-11T10:13:16.219Z,51.92
2022-10-11T10:15:49.205Z,50.98
2022-10-11T10:18:27.789Z,50.76
2022-10-11T10:20:59.873Z,50.92
2022-10-11T10:23:35.293Z,50.94
2022-10-11T10:26:24.849Z,51.10
2022-10-11T10:29:18.781Z,51.14
2022-10-11T10:32:12.920Z,50.38
2022-10-11T10:34:54.366Z,50.31
2022-10-11T10:37:32.304Z,50.08
2022-10-11T10:40:10.386Z,49.38
2022-10-11T10:42:38.935Z,49.82
2022-10-11T10:45:20.111Z,50.15
2022-10-11T10:48:24.026Z,50.54
2022-10-11T10:51:01.257Z,49.94
2022-10-11T10:53:39.042Z,49.92
2022-10-11T10:56:27.616Z,50.14
2022-10-11T10:59:39.038Z,48.57
2022-10-11T11:02:40.315Z,47.99
2022-10-11T11:05:44.012Z,48.53
2022-10-11T11:08:57.253Z,48.81
2022-10-11T11:12:16.530Z,49.10
2022-10-11T11:14:55.957Z,49.17
2022-10-11T11:17:26.204Z,49.44
2022-10-11T11:20:29.788Z,47.96
2022-10-11T11:23:03.692Z,48.42
2022-10-11T11:26:00.710Z,46.58
2022-10-11T11:28:40.583Z,46.75
2022-10-11T11:31:23.943Z,45.40
2022-10-11T11:34:38.731Z,46.66
2022-10-11T11:37:14.899Z,46.12
2022-10-11T11:39:54.606Z,45.25
2022-10-11T11:43:01.439Z,45.70
2022-10-11T11:45:46.701Z,45.66
2022-10-11T11:48:34.064Z,44.66
2022-10-11T11:51:11.711Z,44.86
2022-10-11T11:54:08.539Z,46.45
2022-10-11T11:57:02.876Z,46.04
2022-10-11T11:59:36.936Z,45.80
2022-10-11T12:02:53.200Z,46.09
2022-10-11T12:05:29.813Z,46.61
2022-10-11T12:08:04.395Z,46.68
2022-10-11T12:10:55.944Z,46.12
2022-10-11T12:13:37.677Z,46.03
2022-10-11T12:16:15.542Z,44.81
2022-10-11T12:19:14.545Z,44.88
2022-10-11T12:21:44.963Z,45.67
2022-10-11T12:24:19.680Z,45.20
2022-10-11T12:26:56.470Z,46.53
2022-10-11T12:29:48.237Z,45.50
2022-10-11T12:32:29.210Z,45.84
2022-10-11T12:35:37.995Z,43.86
2022-10-11T12:38:19.542Z,43.96
2022-10-11T12:40:50.850Z,43.42
2022-10-11T12:43:19.078Z,44.13
2022-10-11T12:45:48.397Z,43.22
2022-10-11T12:48:46.530Z,43.24
2022-10-11T12:51:50.193Z,43.73
2022-10-11T12:55:03.552Z,44.34
2022-10-11T12:57:50.670Z,44.20
2022-10-11T13:00:53.094Z,43.77
2022-10-11T13:03:32.839Z,44.27
2022-10-11T13:06:25.180Z,44.57
2022-10-11T13:09:14.350Z,43.73
2022-10-11T13:11:50.744Z,44.43
2022-10-11T13:14:26.712Z,44.72
2022-10-11T13:17:16.181Z,45.16
2022-10-11T13:19:44.480Z,43.51
2022-10-11T13:22:23.328Z,44.44
2022-10-11T13:24:57.004Z,43.97
2022-10-11T13:27:27.876Z,44.14
2022-10-11T13:30:01.092Z,43.72
2022-10-11T13:32:32.121Z,43.98
2022-10-11T13:35:13.726Z,42.72
2022-10-11T13:37:46.542Z,42.33
2022-10-11T13:40:18.377Z,42.35
2022-10-11T13:42:48.771Z,40.80
2022-10-11T13:45:26.277Z,41.95
2022-10-11T13:47:55.479Z,40.46
2022-10-11T13:50:35.409Z,39.93
2022-10-11T13:53:09.615Z,39.02
2022-10-11T13:56:00.072Z,38.90
2022-10-11T13:58:45.045Z,39.18
2022-10-11T14:01:24.936Z,38.89
2022-10-11T14:04:02.901Z,39.34
2022-10-11T14:07:03.480Z,38.97
2022-10-11T14:09:38.834Z,40.11
2022-10-11T14:12:32.306Z,40.03
2022-10-11T14:15:02.570Z,40.23
2022-10-11T14:17:45.747Z,40.94
2022-10-11T14:20:23.631Z,40.56
2022-10-11T14:22:53.436Z,41.14
2022-10-11T14:25:22.202Z,41.30
2022-10-11T14:27:50.746Z,40.91
2022-10-11T14:30:27.116Z,41.26
2022-10-11T14:33:01.239Z,41.44
2022-10-11T14:35:32.432Z,41.76
2022-10-11T14:38:01.130Z,42.06
2022-10-11T14:40:31.985Z,42.31
2022-10-11T14:43:00.241Z,42.86
2022-10-11T14:45:29.400Z,43.01
2022-10-11T14:47:57.938Z,43.46
2022-10-11T14:50:42.823Z,43.82
2022-10-11T14:53:12.196Z,43.71
2022-10-11T14:55:41.491Z,43.74
2022-10-11T14:58:13.769Z,44.22
2022-10-11T15:00:42.091Z,44.46
2022-10-11T15:03:10.552Z,44.78
2022-10-11T15:05:39.350Z,44.92
2022-10-11T15:08:07.887Z,45.22
2022-10-11T15:10:41.045Z,45.52
2022-10-11T15:13:09.948Z,45.56
2022-10-11T15:15:41.574Z,45.79
2022-10-11T15:18:13.652Z,45.94
2022-10-11T15:20:45.738Z,46.11
2022-10-11T15:23:14.598Z,46.07
2022-10-11T15:25:43.151Z,46.16
2022-10-11T15:28:28.878Z,46.27
2022-10-11T15:30:58.273Z,46.33
2022-10-11T15:33:26.986Z,46.46
2022-10-11T15:35:55.289Z,46.51
2022-10-11T15:38:25.860Z,46.64
2022-10-11T15:40:54.744Z,46.83
2022-10-11T15:43:24.997Z,46.82
2022-10-11T15:45:55.237Z,47.04
2022-10-11T15:48:26.482Z,47.06
2022-10-11T15:50:55.064Z,47.13
2022-10-11T15:53:31.346Z,47.23
2022-10-11T15:56:05.648Z,47.34
2022-10-11T15:58:40.376Z,47.33
2022-10-11T16:01:20.180Z,47.53
2022-10-11T16:03:50.761Z,47.58
2022-10-11T16:06:19.522Z,47.64
2022-10-11T16:08:48.192Z,47.74
2022-10-11T16:11:16.493Z,47.92
2022-10-11T16:13:45.374Z,48.00
2022-10-11T16:16:13.748Z,47.90
2022-10-11T16:18:42.043Z,48.18
2022-10-11T16:21:14.517Z,48.16
2022-10-11T16:23:43.237Z,48.44
2022-10-11T16:26:14.941Z,48.39
2022-10-11T16:28:43.365Z,48.35
2022-10-11T16:31:18.260Z,48.51
2022-10-11T16:33:47.931Z,48.84
2022-10-11T16:36:40.264Z,49.01
2022-10-11T16:39:18.393Z,49.13
2022-10-11T16:41:47.391Z,49.24
2022-10-11T16:44:22.158Z,49.43
2022-10-11T16:46:51.105Z,49.54
2022-10-11T16:49:23.184Z,49.55
2022-10-11T16:51:53.807Z,49.44
2022-10-11T16:54:22.758Z,49.26
2022-10-11T16:56:51.622Z,49.26
2022-10-11T16:59:20.977Z,49.43
2022-10-11T17:01:49.287Z,49.35
2022-10-11T17:04:17.571Z,49.37
2022-10-11T17:06:46.043Z,49.37
2022-10-11T17:09:16.101Z,49.26
2022-10-11T17:11:44.244Z,49.27
2022-10-11T17:14:14.183Z,49.37
2022-10-11T17:16:43.351Z,49.48
2022-10-11T17:19:14.990Z,49.56
2022-10-11T17:21:43.570Z,49.67
2022-10-11T17:24:11.813Z,50.06
2022-10-11T17:26:40.287Z,50.18
2022-10-11T17:29:17.152Z,50.18
2022-10-11T17:31:49.079Z,50.44
2022-10-11T17:34:18.461Z,50.56
2022-10-11T17:36:47.657Z,50.54
2022-10-11T17:39:21.485Z,50.55
2022-10-11T17:41:50.812Z,50.52
2022-10-11T17:44:19.850Z,50.36
2022-10-11T17:46:49.169Z,50.51
2022-10-11T17:49:17.579Z,50.60
2022-10-11T17:51:45.931Z,50.97
2022-10-11T17:54:14.515Z,50.73
2022-10-11T17:56:42.901Z,50.91
2022-10-11T17:59:28.104Z,50.92
2022-10-11T18:01:56.742Z,51.05
2022-10-11T18:04:27.313Z,50.89
2022-10-11T18:06:56.176Z,50.82
2022-10-11T18:09:24.968Z,50.72
2022-10-11T18:11:53.350Z,50.93
2022-10-11T18:14:21.929Z,50.70
2022-10-11T18:16:50.525Z,50.55
2022-10-11T18:19:18.770Z,50.65
2022-10-11T18:21:47.058Z,50.49
2022-10-11T18:24:16.956Z,50.40
2022-10-11T18:26:46.878Z,50.78
2022-10-11T18:29:16.345Z,50.67
2022-10-11T18:31:44.897Z,50.61
2022-10-11T18:34:13.993Z,50.45
2022-10-11T18:36:42.486Z,50.46
2022-10-11T18:39:14.827Z,50.42
2022-10-11T18:41:44.830Z,50.44
2022-10-11T18:44:15.865Z,50.67
2022-10-11T18:46:45.491Z,50.75
2022-10-11T18:49:14.292Z,50.79
2022-10-11T18:51:45.093Z,51.09
2022-10-11T18:54:16.949Z,51.19
2022-10-11T18:56:49.026Z,51.20
2022-10-11T18:59:17.621Z,51.49
2022-10-11T19:01:46.477Z,51.54
2022-10-11T19:04:18.474Z,51.53
2022-10-11T19:06:48.791Z,51.66
2022-10-11T19:09:24.486Z,51.59
2022-10-11T19:11:55.478Z,51.81
2022-10-11T19:14:30.353Z,51.74
2022-10-11T19:16:58.992Z,51.98
2022-10-11T19:19:29.806Z,52.09
2022-10-11T19:21:58.122Z,52.12
2022-10-11T19:24:29.639Z,52.21
2022-10-11T19:27:02.608Z,52.25
2022-10-11T19:29:31.850Z,52.20
2022-10-11T19:32:03.155Z,52.40
2022-10-11T19:34:32.952Z,52.44
2022-10-11T19:37:01.783Z,52.18
2022-10-11T19:39:30.465Z,52.35
2022-10-11T19:42:00.397Z,52.12
2022-10-11T19:44:29.626Z,52.25
2022-10-11T19:47:02.773Z,52.06
2022-10-11T19:49:33.623Z,52.18
2022-10-11T19:52:02.205Z,52.20
2022-10-11T19:54:32.097Z,52.28
2022-10-11T19:57:00.394Z,52.47
2022-10-11T19:59:29.488Z,52.13
2022-10-11T20:01:57.871Z,52.41
2022-10-11T20:07:14.434Z,52.19
2022-10-11T20:09:42.953Z,52.29
2022-10-11T20:12:11.726Z,52.40
2022-10-11T20:14:40.035Z,52.50
2022-10-11T20:17:08.333Z,52.48
2022-10-11T20:19:36.673Z,52.38
2022-10-11T20:22:05.163Z,52.38
2022-10-11T20:24:34.770Z,52.65
2022-10-11T20:27:06.800Z,52.88
2022-10-11T20:29:35.827Z,52.61
2022-10-11T20:32:04.297Z,52.71
2022-10-11T20:34:32.672Z,52.67
2022-10-11T20:37:01.073Z,52.72
2022-10-11T20:39:29.444Z,52.74
2022-10-11T20:41:58.035Z,52.78
2022-10-11T20:44:26.537Z,52.65
2022-10-11T20:46:55.050Z,52.90
2022-10-11T20:49:23.281Z,53.07
2022-10-11T20:51:51.631Z,53.09
2022-10-11T20:54:20.027Z,53.18
2022-10-11T20:56:48.389Z,53.16
2022-10-11T20:59:16.878Z,53.24
2022-10-11T21:01:46.018Z,53.14
2022-10-11T21:04:19.565Z,53.23
2022-10-11T21:06:49.127Z,53.22
2022-10-11T21:09:17.584Z,53.13
2022-10-11T21:11:46.655Z,52.95
2022-10-11T21:14:15.437Z,52.98
2022-10-11T21:16:44.134Z,53.05
2022-10-11T21:19:16.301Z,53.12
2022-10-11T21:21:52.600Z,53.11
2022-10-11T21:24:21.961Z,53.44
2022-10-11T21:26:50.429Z,53.42
2022-10-11T21:29:19.117Z,53.43
2022-10-11T21:31:47.369Z,53.24
2022-10-11T21:34:15.977Z,53.45
2022-10-11T21:36:44.269Z,53.58
2022-10-11T21:39:12.648Z,53.62
2022-10-11T21:41:42.457Z,53.67
2022-10-11T21:44:10.947Z,53.74
2022-10-11T21:47:05.435Z,53.69
2022-10-11T21:49:28.052Z,53.65
2022-10-11T21:51:56.557Z,53.57
2022-10-11T21:54:24.869Z,53.84
2022-10-11T21:56:53.188Z,53.94
2022-10-11T21:59:21.769Z,53.91
2022-10-11T22:01:50.150Z,54.17
2022-10-11T22:04:18.673Z,54.46
2022-10-11T22:06:47.339Z,54.72
2022-10-11T22:09:16.230Z,55.26
2022-10-11T22:11:44.482Z,55.22
2022-10-11T22:14:12.985Z,55.34
2022-10-11T22:16:41.760Z,55.22
2022-10-11T22:19:10.150Z,55.01
2022-10-11T22:21:43.983Z,55.10
2022-10-11T22:24:13.365Z,55.48
2022-10-11T22:26:41.740Z,55.63
2022-10-11T22:29:10.104Z,55.77
2022-10-11T22:31:38.582Z,56.09
2022-10-11T22:34:06.975Z,56.34
2022-10-11T22:36:35.456Z,56.04
2022-10-11T22:39:08.132Z,55.94
2022-10-11T22:41:37.934Z,56.06
2022-10-11T22:44:06.411Z,56.15
2022-10-11T22:46:34.669Z,56.27
2022-10-11T22:49:03.198Z,56.07
2022-10-11T22:51:31.570Z,56.03
2022-10-11T22:53:59.920Z,55.99
2022-10-11T22:56:28.490Z,56.78
2022-10-11T22:58:58.644Z,57.82
2022-10-11T23:01:27.022Z,59.33
2022-10-11T23:03:55.653Z,59.32
2022-10-11T23:06:24.069Z,59.01
2022-10-11T23:08:52.667Z,59.24
2022-10-11T23:11:21.049Z,59.29
2022-10-11T23:13:49.428Z,59.38
2022-10-11T23:16:17.728Z,59.46
2022-10-11T23:18:46.124Z,59.76
2022-10-11T23:21:14.441Z,60.11
2022-10-11T23:23:42.838Z,60.01
2022-10-11T23:26:15.002Z,60.06
2022-10-11T23:28:44.185Z,60.26
2022-10-11T23:31:19.419Z,60.14
2022-10-11T23:33:48.346Z,60.39
2022-10-11T23:36:21.298Z,61.13
2022-10-11T23:38:55.838Z,62.50
2022-10-11T23:41:28.050Z,62.62
2022-10-11T23:43:57.237Z,62.78
2022-10-11T23:46:25.877Z,62.77
2022-10-11T23:48:54.179Z,62.86
2022-10-11T23:51:22.543Z,62.97
2022-10-11T23:53:50.823Z,63.17
2022-10-11T23:56:19.383Z,62.79
2022-10-11T23:58:47.723Z,62.85
